Terminal Aerodrome Forecast
Issued by NWS

Home | Current Version | Previous Version | Graphics & Text | Print | Product List | Glossary On
Versions: 1 2 3 4 5 6 7 8 9 10 11 12 13 14 15 16 17 18 19 20
000
FTUS43 KMPX 160200 AAA
TAFAXN
TAF AMD
KAXN 160230Z 1603/1624 11012KT P6SM OVC060
     FM160600 10014G20KT P6SM VCSH OVC040
     FM161100 09018G24KT 3SM -SN OVC025
     FM161400 07017G25KT 1 1/2SM -SN OVC008
     FM162200 03015G23KT 5SM -SN OVC020=

USA.gov is the U.S. government's official web portal to all federal, state and local government web resources and services.